Buchtel, Ohio
Current Conditions -  °F | °C
As of 3:55 PM on Sunday 21 Dec 2014 (Local Time) from KUNI Reporting Station
Clear Clear  
Wind Chill: 38°   Ceiling: Unl
Heat Index: 38°   Visibility: 10mi
Dew Point: 26°   Wind: 0mph
Humidity: 62%   Direction: NA
Pressure: 30.22"   Gusts: NA
Location:  39.46°N, 82.18°W
Report Text: KUNI 212055Z AUTO 00000KT 10SM CLR 03/M03 A3022 RMK AO2 T00341033
Loading
Personal Weather Stations






























Interactive Weather Map New forecast layout! Learn more

10-Day Weather Forecast

Advertisements
Track Severe Weather on mobile